Time;durP1;ratioP1;P1;durP2;ratioP2;P2;SDS_P1;SDS_P2;PMS_P1;PMS_P2;Temp;Humidity;BMP_temperature;BMP_pressure;BME280_temperature;BME280_humidity;BME280_pressure;Samples;Min_cycle;Max_cycle;Signal;HPM_P1;HPM_P2
2021/07/04 00:00:57;;;;;;;;;;;;;;;22.61;62.07;99453.19;2064056;28;19914;-60
2021/07/04 00:01:58;;;;;;;;;;;;;;;22.62;62.08;99454.03;2061300;28;20663;-60
2021/07/04 00:02:59;;;;;;;;;;;;;;;22.61;62.18;99453.19;2060183;28;19918;-60
2021/07/04 00:03:59;;;;;;;;;;;;;;;22.61;62.09;99458.69;2062969;28;19909;-60
2021/07/04 00:05:00;;;;;;;;;;;;;;;22.61;62.13;99453.19;2062324;28;19952;-60
2021/07/04 00:06:00;;;;;;;;;;;;;;;22.61;62.23;99461.44;2064148;28;19902;-60
2021/07/04 00:07:02;;;;;;;;;;;;;;;22.62;62.10;99459.53;2058349;28;20102;-60
2021/07/04 00:08:03;;;;;;;;;;;;;;;22.62;62.00;99460.38;2058485;28;20364;-60
2021/07/04 00:09:03;;;;;;;;;;;;;;;22.62;62.22;99465.88;2057873;28;19945;-60
2021/07/04 00:10:04;;;;;;;;;;;;;;;22.61;62.03;99455.94;2057496;28;19917;-60
2021/07/04 00:11:06;;;;;;;;;;;;;;;22.60;62.04;99456.97;2063363;28;19909;-60
2021/07/04 00:12:08;;;;;;;;;;;;;;;22.61;62.10;99453.19;2063445;28;19913;-60
2021/07/04 00:13:09;;;;;;;;;;;;;;;22.61;62.21;99447.72;2067098;28;20364;-60
2021/07/04 00:14:09;;;;;;;;;;;;;;;22.61;62.11;99444.06;2063679;28;20392;-60
2021/07/04 00:15:11;;;;;;;;;;;;;;;22.61;62.21;99439.47;2060224;28;20339;-60
2021/07/04 00:16:11;;;;;;;;;;;;;;;22.60;62.23;99435.00;2063101;28;20287;-60
2021/07/04 00:17:11;;;;;;;;;;;;;;;22.61;62.25;99430.34;2063697;28;19909;-60
2021/07/04 00:18:13;;;;;;;;;;;;;;;22.61;62.27;99424.84;2060208;28;19913;-60
2021/07/04 00:19:13;;;;;;;;;;;;;;;22.61;62.21;99422.97;2060490;28;19980;-60
2021/07/04 00:20:14;;;;;;;;;;;;;;;22.61;62.15;99424.84;2063014;28;19913;-60
2021/07/04 00:21:15;;;;;;;;;;;;;;;22.61;62.05;99424.84;2063480;28;19913;-60
2021/07/04 00:22:15;;;;;;;;;;;;;;;22.60;62.11;99418.50;2062432;28;20003;-60
2021/07/04 00:23:15;;;;;;;;;;;;;;;22.60;62.24;99418.50;2060784;28;19960;-61
2021/07/04 00:24:16;;;;;;;;;;;;;;;22.61;62.31;99422.09;2056835;28;19910;-60
2021/07/04 00:25:17;;;;;;;;;;;;;;;22.60;62.20;99415.75;2054170;28;19968;-60
2021/07/04 00:26:17;;;;;;;;;;;;;;;22.61;62.05;99417.50;2054995;28;19914;-61
2021/07/04 00:27:17;;;;;;;;;;;;;;;22.61;62.29;99412.00;2059713;28;19905;-60
2021/07/04 00:28:18;;;;;;;;;;;;;;;22.61;62.33;99414.75;2057619;28;20522;-60
2021/07/04 00:29:18;;;;;;;;;;;;;;;22.61;62.21;99413.88;2059024;28;19904;-60
2021/07/04 00:30:18;;;;;;;;;;;;;;;22.61;62.26;99403.75;2055832;28;20065;-60
2021/07/04 00:31:19;;;;;;;;;;;;;;;22.61;62.24;99408.38;2062116;28;19956;-60
2021/07/04 00:32:19;;;;;;;;;;;;;;;22.60;61.98;99413.03;2064454;28;20587;-61
2021/07/04 00:33:19;;;;;;;;;;;;;;;22.61;62.13;99414.75;2062886;28;19902;-60
2021/07/04 00:34:20;;;;;;;;;;;;;;;22.61;61.97;99419.34;2064010;28;19913;-60
2021/07/04 00:35:22;;;;;;;;;;;;;;;22.62;62.23;99415.59;2062398;28;20698;-60
2021/07/04 00:36:23;;;;;;;;;;;;;;;22.61;62.23;99420.25;2071613;28;19905;-60
2021/07/04 00:37:23;;;;;;;;;;;;;;;22.61;62.15;99425.72;2060467;28;19923;-60
2021/07/04 00:38:23;;;;;;;;;;;;;;;22.61;62.05;99422.97;2061186;28;20369;-60
2021/07/04 00:39:23;;;;;;;;;;;;;;;22.62;62.13;99424.69;2054094;28;19910;-60
2021/07/04 00:40:24;;;;;;;;;;;;;;;22.62;62.30;99415.59;2053794;28;19901;-60
2021/07/04 00:41:25;;;;;;;;;;;;;;;22.60;62.19;99404.78;2063068;28;19919;-61
2021/07/04 00:42:25;;;;;;;;;;;;;;;22.60;62.17;99396.53;2061332;28;20371;-60
2021/07/04 00:43:25;;;;;;;;;;;;;;;22.61;62.26;99392.78;2060297;28;19920;-60
2021/07/04 00:44:26;;;;;;;;;;;;;;;22.61;62.23;99389.16;2061592;28;19968;-60
2021/07/04 00:45:26;;;;;;;;;;;;;;;22.61;62.21;99392.78;2064542;28;19924;-60
2021/07/04 00:46:30;;;;;;;;;;;;;;;22.60;62.25;99388.28;2061691;28;19959;-60
2021/07/04 00:47:30;;;;;;;;;;;;;;;22.61;62.26;99391.88;2062899;28;20683;-60
2021/07/04 00:48:31;;;;;;;;;;;;;;;22.60;62.46;99391.03;2061787;28;19956;-60
2021/07/04 00:49:31;;;;;;;;;;;;;;;22.61;62.38;99391.88;2063896;28;19936;-60
2021/07/04 00:50:33;;;;;;;;;;;;;;;22.60;62.25;99391.03;2062573;28;19915;-60
2021/07/04 00:51:33;;;;;;;;;;;;;;;22.60;62.23;99396.53;2063561;28;20358;-60
2021/07/04 00:52:34;;;;;;;;;;;;;;;22.61;62.27;99391.88;2062329;28;19924;-60
2021/07/04 00:53:34;;;;;;;;;;;;;;;22.61;62.39;99387.28;2059266;28;19914;-60
2021/07/04 00:54:35;;;;;;;;;;;;;;;22.61;62.43;99391.88;2063306;28;19906;-60
2021/07/04 00:55:35;;;;;;;;;;;;;;;22.61;62.42;99391.88;2061432;28;19935;-60
2021/07/04 00:56:36;;;;;;;;;;;;;;;22.62;62.38;99383.47;2062402;28;19902;-60
2021/07/04 00:57:36;;;;;;;;;;;;;;;22.60;62.39;99380.06;2063018;28;19914;-61
2021/07/04 00:58:36;;;;;;;;;;;;;;;22.62;62.21;99388.13;2062501;28;19909;-60
2021/07/04 00:59:37;;;;;;;;;;;;;;;22.61;62.45;99381.78;2063409;28;20670;-60
2021/07/04 01:00:38;;;;;;;;;;;;;;;22.61;62.23;99381.78;2059482;28;19913;-60
2021/07/04 01:01:39;;;;;;;;;;;;;;;22.61;62.14;99387.28;2055536;28;19960;-60
2021/07/04 01:02:39;;;;;;;;;;;;;;;22.60;62.34;99385.56;2057228;28;20750;-60
2021/07/04 01:03:39;;;;;;;;;;;;;;;22.60;62.36;99380.06;2056539;28;20064;-60
2021/07/04 01:04:40;;;;;;;;;;;;;;;22.61;62.24;99387.28;2058497;28;19906;-60
2021/07/04 01:05:41;;;;;;;;;;;;;;;22.60;62.43;99382.81;2052787;28;20080;-60
2021/07/04 01:06:42;;;;;;;;;;;;;;;22.61;62.50;99380.91;2055615;28;19910;-60
2021/07/04 01:07:42;;;;;;;;;;;;;;;22.61;62.34;99386.41;2058430;28;20049;-60
2021/07/04 01:08:43;;;;;;;;;;;;;;;22.61;62.24;99391.88;2058420;28;20303;-60
2021/07/04 01:09:43;;;;;;;;;;;;;;;22.61;62.33;99387.28;2062810;28;19917;-60
2021/07/04 01:10:45;;;;;;;;;;;;;;;22.61;62.32;99402.88;2062043;28;19909;-60
2021/07/04 01:11:46;;;;;;;;;;;;;;;22.62;62.42;99405.44;2062753;28;19905;-60
2021/07/04 01:12:47;;;;;;;;;;;;;;;22.60;62.28;99407.53;2055914;28;19987;-60
2021/07/04 01:13:48;;;;;;;;;;;;;;;22.62;62.32;99418.34;2049148;28;19918;-60
2021/07/04 01:14:48;;;;;;;;;;;;;;;22.61;62.46;99417.50;2054208;28;19909;-60
2021/07/04 01:15:49;;;;;;;;;;;;;;;22.61;62.47;99425.72;2062679;28;19909;-60
2021/07/04 01:16:49;;;;;;;;;;;;;;;22.62;62.42;99432.06;2063108;28;19923;-60
2021/07/04 01:17:49;;;;;;;;;;;;;;;22.62;62.19;99426.56;2054300;28;20383;-60
2021/07/04 01:18:50;;;;;;;;;;;;;;;22.62;62.34;99449.41;2060641;28;20423;-60
2021/07/04 01:19:50;;;;;;;;;;;;;;;22.61;62.34;99444.97;2053033;28;19967;-60
2021/07/04 01:20:51;;;;;;;;;;;;;;;22.60;62.47;99440.50;2063027;28;19912;-60
2021/07/04 01:21:53;;;;;;;;;;;;;;;22.61;62.25;99442.22;2062419;28;19902;-60
2021/07/04 01:23:02;;;;;;;;;;;;;;;22.61;62.38;99444.97;2060731;28;19924;-60
2021/07/04 01:24:02;;;;;;;;;;;;;;;22.61;62.43;99444.06;2059373;28;19910;-60
2021/07/04 01:25:04;;;;;;;;;;;;;;;22.62;62.42;99451.31;2056702;28;19964;-60
2021/07/04 01:26:04;;;;;;;;;;;;;;;22.60;62.47;99456.97;2062588;28;20047;-60
2021/07/04 01:27:04;;;;;;;;;;;;;;;22.60;62.25;99448.72;2062724;28;19917;-60
2021/07/04 01:28:05;;;;;;;;;;;;;;;22.62;62.31;99448.56;2062867;28;19930;-60
2021/07/04 01:29:05;;;;;;;;;;;;;;;22.60;62.41;99440.50;2060845;28;19913;-60
2021/07/04 01:30:07;;;;;;;;;;;;;;;22.60;62.36;99440.50;2054277;28;20408;-60
2021/07/04 01:31:08;;;;;;;;;;;;;;;22.59;62.38;99438.78;2061753;28;19948;-60
2021/07/04 01:32:08;;;;;;;;;;;;;;;22.60;62.24;99429.50;2063159;28;19996;-60
2021/07/04 01:33:08;;;;;;;;;;;;;;;22.60;62.38;99428.66;2061238;28;19910;-60
2021/07/04 01:34:09;;;;;;;;;;;;;;;22.60;62.44;99418.50;2062325;28;19996;-60
2021/07/04 01:35:09;;;;;;;;;;;;;;;22.59;62.37;99405.84;2061027;28;19901;-60
2021/07/04 01:36:12;;;;;;;;;;;;;;;22.60;62.24;99384.72;2063754;28;20357;-60
2021/07/04 01:37:13;;;;;;;;;;;;;;;22.59;62.44;99361.88;2060359;28;19950;-60
2021/07/04 01:38:13;;;;;;;;;;;;;;;22.59;62.51;99367.38;2060029;28;19913;-60
2021/07/04 01:39:13;;;;;;;;;;;;;;;22.59;62.42;99361.88;2063126;28;20573;-60
2021/07/04 01:40:14;;;;;;;;;;;;;;;22.59;62.75;99372.88;2061905;28;20389;-60
2021/07/04 01:41:14;;;;;;;;;;;;;;;22.60;62.71;99374.56;2061722;28;19948;-60
2021/07/04 01:42:15;;;;;;;;;;;;;;;22.60;62.54;99380.06;2061286;28;20124;-60
2021/07/04 01:43:15;;;;;;;;;;;;;;;22.60;62.40;99380.06;2061577;28;19918;-60
2021/07/04 01:44:15;;;;;;;;;;;;;;;22.61;62.57;99386.41;2066399;28;20014;-60
2021/07/04 01:45:17;;;;;;;;;;;;;;;22.60;62.40;99391.03;2062019;28;19923;-60
2021/07/04 01:46:17;;;;;;;;;;;;;;;22.60;62.42;99385.56;2055631;28;20423;-60
2021/07/04 01:47:17;;;;;;;;;;;;;;;22.61;62.45;99398.25;2062468;28;20729;-60
2021/07/04 01:48:18;;;;;;;;;;;;;;;22.61;62.40;99391.88;2061906;28;19905;-61
2021/07/04 01:49:18;;;;;;;;;;;;;;;22.61;62.17;99383.66;2064678;28;19962;-61
2021/07/04 01:50:20;;;;;;;;;;;;;;;22.60;62.36;99369.06;2062194;28;20078;-60
2021/07/04 01:51:20;;;;;;;;;;;;;;;22.60;62.28;99360.84;2062230;28;20879;-60
2021/07/04 01:52:20;;;;;;;;;;;;;;;22.60;62.28;99362.72;2061706;28;19983;-60
2021/07/04 01:53:21;;;;;;;;;;;;;;;22.60;62.46;99371.81;2062260;28;20376;-60
2021/07/04 01:54:21;;;;;;;;;;;;;;;22.60;62.43;99385.56;2062859;28;19916;-60
2021/07/04 01:55:22;;;;;;;;;;;;;;;22.61;62.41;99394.63;2060787;28;19959;-61
2021/07/04 01:56:23;;;;;;;;;;;;;;;22.60;62.52;99396.53;2060969;28;21141;-60
2021/07/04 01:57:23;;;;;;;;;;;;;;;22.60;62.38;99402.03;2062239;28;19901;-60
2021/07/04 01:58:23;;;;;;;;;;;;;;;22.60;62.44;99402.03;2059072;28;20396;-60
2021/07/04 01:59:23;;;;;;;;;;;;;;;22.60;62.44;99402.03;2055711;28;19902;-60
2021/07/04 02:00:26;;;;;;;;;;;;;;;22.60;62.51;99407.53;2060912;28;19916;-60
2021/07/04 02:01:26;;;;;;;;;;;;;;;22.61;62.37;99403.75;2062336;28;19948;-61
2021/07/04 02:02:26;;;;;;;;;;;;;;;22.62;62.43;99404.59;2061779;28;20515;-61
2021/07/04 02:03:27;;;;;;;;;;;;;;;22.61;62.54;99397.38;2060616;28;20175;-59
2021/07/04 02:04:27;;;;;;;;;;;;;;;22.61;62.27;99390.03;2060733;28;19897;-60
2021/07/04 02:05:27;;;;;;;;;;;;;;;22.60;62.43;99382.81;2059176;28;19914;-61
2021/07/04 02:06:28;;;;;;;;;;;;;;;22.60;62.35;99380.06;2055185;28;20443;-60
2021/07/04 02:07:28;;;;;;;;;;;;;;;22.59;62.26;99378.38;2056577;28;19910;-60
2021/07/04 02:08:28;;;;;;;;;;;;;;;22.60;62.49;99379.22;2056144;28;19913;-60
2021/07/04 02:09:29;;;;;;;;;;;;;;;22.59;62.48;99389.34;2054866;28;20374;-60
2021/07/04 02:10:30;;;;;;;;;;;;;;;22.60;62.41;99391.03;2056316;28;19949;-60
2021/07/04 02:11:31;;;;;;;;;;;;;;;22.60;62.26;99384.72;2054672;28;20017;-60
2021/07/04 02:12:31;;;;;;;;;;;;;;;22.61;62.46;99389.16;2056865;28;19913;-60
2021/07/04 02:13:31;;;;;;;;;;;;;;;22.60;62.40;99382.81;2056685;28;20361;-60
2021/07/04 02:14:32;;;;;;;;;;;;;;;22.60;62.58;99380.06;2056836;28;19996;-60
2021/07/04 02:15:33;;;;;;;;;;;;;;;22.60;62.55;99380.06;2061347;28;19918;-60
2021/07/04 02:16:34;;;;;;;;;;;;;;;22.61;62.58;99383.66;2061833;28;20426;-60
2021/07/04 02:17:34;;;;;;;;;;;;;;;22.60;62.38;99385.56;2060309;28;20399;-60
2021/07/04 02:18:34;;;;;;;;;;;;;;;22.60;62.26;99385.56;2062097;28;19917;-60
2021/07/04 02:19:36;;;;;;;;;;;;;;;22.60;62.56;99387.44;2061823;28;19921;-60
2021/07/04 02:20:36;;;;;;;;;;;;;;;22.61;62.43;99387.28;2058983;28;19910;-60
2021/07/04 02:21:37;;;;;;;;;;;;;;;22.60;62.32;99379.22;2068473;28;19928;-60
2021/07/04 02:22:37;;;;;;;;;;;;;;;22.60;62.57;99384.72;2058323;28;20404;-60
2021/07/04 02:23:37;;;;;;;;;;;;;;;22.61;62.32;99378.16;2064214;28;20283;-60
2021/07/04 02:24:38;;;;;;;;;;;;;;;22.60;62.52;99374.56;2062376;28;19912;-60
2021/07/04 02:25:39;;;;;;;;;;;;;;;22.60;62.49;99362.72;2062512;28;20246;-60
2021/07/04 02:26:40;;;;;;;;;;;;;;;22.60;62.50;99355.34;2060646;28;20393;-60
2021/07/04 02:27:40;;;;;;;;;;;;;;;22.60;62.32;99351.75;2058255;28;19937;-60
2021/07/04 02:28:40;;;;;;;;;;;;;;;22.59;62.35;99339.06;2059541;28;20388;-60
2021/07/04 02:29:41;;;;;;;;;;;;;;;22.59;62.46;99328.09;2060487;28;20266;-60
2021/07/04 02:30:41;;;;;;;;;;;;;;;22.59;62.49;99322.59;2063164;28;19963;-60
2021/07/04 02:31:41;;;;;;;;;;;;;;;22.59;62.66;99322.59;2060068;28;19991;-60
2021/07/04 02:32:42;;;;;;;;;;;;;;;22.58;62.65;99327.19;2061416;28;19910;-60
2021/07/04 02:33:42;;;;;;;;;;;;;;;22.59;62.49;99342.66;2061346;28;19915;-60
2021/07/04 02:34:42;;;;;;;;;;;;;;;22.58;62.55;99329.09;2062074;28;19940;-61
2021/07/04 02:35:50;;;;;;;;;;;;;;;22.58;62.66;99332.69;2062509;28;20377;-60
2021/07/04 02:36:51;;;;;;;;;;;;;;;22.59;62.48;99328.94;2061150;28;19932;-60
2021/07/04 02:37:51;;;;;;;;;;;;;;;22.59;62.40;99328.94;2053998;28;20304;-60
2021/07/04 02:38:51;;;;;;;;;;;;;;;22.59;62.57;99312.44;2061734;28;19909;-60
2021/07/04 02:39:52;;;;;;;;;;;;;;;22.60;62.61;99310.53;2055032;28;20606;-60
2021/07/04 02:40:53;;;;;;;;;;;;;;;22.58;62.58;99302.47;2064237;28;19958;-60
2021/07/04 02:41:53;;;;;;;;;;;;;;;22.60;62.59;99296.81;2061334;28;20012;-60
2021/07/04 02:42:54;;;;;;;;;;;;;;;22.60;62.55;99296.81;2061178;28;19916;-60
2021/07/04 02:43:55;;;;;;;;;;;;;;;22.59;62.69;99309.69;2051089;28;19910;-60
2021/07/04 02:44:55;;;;;;;;;;;;;;;22.59;62.66;99306.09;2052227;28;19956;-60
2021/07/04 02:45:56;;;;;;;;;;;;;;;22.58;62.80;99310.72;2064116;28;19984;-60
2021/07/04 02:46:56;;;;;;;;;;;;;;;22.58;62.49;99318.97;2061868;28;20417;-61
2021/07/04 02:47:56;;;;;;;;;;;;;;;22.59;62.49;99317.94;2066151;28;20562;-60
2021/07/04 02:48:57;;;;;;;;;;;;;;;22.59;62.50;99328.94;2059905;28;20601;-60
2021/07/04 02:49:57;;;;;;;;;;;;;;;22.60;62.57;99324.28;2060889;28;19909;-60
2021/07/04 02:50:57;;;;;;;;;;;;;;;22.59;62.61;99337.16;2061786;28;20040;-61
2021/07/04 02:51:58;;;;;;;;;;;;;;;22.60;62.40;99340.75;2062084;28;19913;-60
2021/07/04 02:52:58;;;;;;;;;;;;;;;22.59;62.76;99337.16;2055030;28;20727;-60
2021/07/04 02:53:58;;;;;;;;;;;;;;;22.60;62.55;99346.25;2062406;28;20633;-61
2021/07/04 02:54:59;;;;;;;;;;;;;;;22.59;62.30;99345.41;2060208;28;19913;-60
2021/07/04 02:55:59;;;;;;;;;;;;;;;22.59;62.43;99356.41;2054337;28;19918;-61
2021/07/04 02:57:05;;;;;;;;;;;;;;;22.59;62.44;99359.13;2052786;28;19994;-60
2021/07/04 02:58:06;;;;;;;;;;;;;;;22.59;62.60;99361.88;2053398;28;19910;-60
2021/07/04 02:59:06;;;;;;;;;;;;;;;22.60;62.46;99374.56;2062590;28;20288;-60
2021/07/04 03:00:08;;;;;;;;;;;;;;;22.59;62.53;99386.59;2061429;28;19976;-60
2021/07/04 03:01:08;;;;;;;;;;;;;;;22.60;62.64;99382.81;2062306;28;19917;-60
2021/07/04 03:02:09;;;;;;;;;;;;;;;22.60;62.56;99399.28;2062184;28;19913;-60
2021/07/04 03:03:09;;;;;;;;;;;;;;;22.60;62.47;99398.44;2058735;28;19921;-61
2021/07/04 03:04:09;;;;;;;;;;;;;;;22.59;62.54;99400.34;2062507;28;19978;-60
2021/07/04 03:05:10;;;;;;;;;;;;;;;22.59;62.59;99405.84;2062350;28;20362;-60
2021/07/04 03:06:10;;;;;;;;;;;;;;;22.59;62.54;99414.06;2062828;28;19920;-61
2021/07/04 03:07:11;;;;;;;;;;;;;;;22.59;62.56;99416.81;2063550;28;20312;-60
2021/07/04 03:08:11;;;;;;;;;;;;;;;22.59;62.38;99416.81;2071620;28;20349;-61
2021/07/04 03:09:11;;;;;;;;;;;;;;;22.60;62.39;99417.66;2062124;28;19917;-61
2021/07/04 03:10:14;;;;;;;;;;;;;;;22.59;62.66;99422.31;2062342;28;19939;-60
2021/07/04 03:11:14;;;;;;;;;;;;;;;22.59;62.50;99419.56;2064166;28;19909;-60
2021/07/04 03:12:14;;;;;;;;;;;;;;;22.60;62.65;99426.75;2060703;28;19917;-60
2021/07/04 03:13:15;;;;;;;;;;;;;;;22.59;62.46;99427.81;2062462;28;19909;-60
2021/07/04 03:14:15;;;;;;;;;;;;;;;22.59;62.66;99410.47;2060923;28;20383;-60
2021/07/04 03:15:17;;;;;;;;;;;;;;;22.59;62.44;99405.84;2060668;28;20508;-61
2021/07/04 03:16:17;;;;;;;;;;;;;;;22.59;62.38;99394.00;2062983;28;19902;-60
2021/07/04 03:17:17;;;;;;;;;;;;;;;22.59;62.34;99405.84;2059559;28;19906;-60
2021/07/04 03:18:18;;;;;;;;;;;;;;;22.58;62.47;99395.03;2062298;28;19916;-60
2021/07/04 03:19:18;;;;;;;;;;;;;;;22.58;62.55;99417.00;2061521;28;20369;-60
2021/07/04 03:20:19;;;;;;;;;;;;;;;22.58;62.57;99414.25;2059443;28;20806;-60
2021/07/04 03:21:19;;;;;;;;;;;;;;;22.58;62.37;99420.59;2049644;28;19918;-60
2021/07/04 03:22:19;;;;;;;;;;;;;;;22.58;62.34;99426.09;2055267;28;19929;-61
2021/07/04 03:23:20;;;;;;;;;;;;;;;22.59;62.34;99438.78;2061397;28;19958;-60
2021/07/04 03:24:20;;;;;;;;;;;;;;;22.60;62.39;99439.63;2057875;28;19917;-60
2021/07/04 03:25:20;;;;;;;;;;;;;;;22.60;62.39;99443.22;2061602;28;19920;-60
2021/07/04 03:26:21;;;;;;;;;;;;;;;22.59;62.45;99433.31;2062041;28;19914;-60
2021/07/04 03:27:21;;;;;;;;;;;;;;;22.59;62.68;99425.06;2062472;28;19908;-61
2021/07/04 03:28:22;;;;;;;;;;;;;;;22.60;62.48;99418.50;2063689;28;20431;-60
2021/07/04 03:29:22;;;;;;;;;;;;;;;22.59;62.71;99411.31;2059645;28;19909;-61
2021/07/04 03:30:22;;;;;;;;;;;;;;;22.58;62.45;99426.09;2065129;28;20036;-61
2021/07/04 03:31:23;;;;;;;;;;;;;;;22.57;62.75;99429.88;2063085;28;20012;-60
2021/07/04 03:32:23;;;;;;;;;;;;;;;22.59;62.66;99437.94;2060758;28;20376;-60
2021/07/04 03:33:24;;;;;;;;;;;;;;;22.58;62.60;99442.56;2063748;28;19909;-60
2021/07/04 03:34:24;;;;;;;;;;;;;;;22.59;62.67;99447.03;2061321;28;19920;-60
2021/07/04 03:35:24;;;;;;;;;;;;;;;22.59;62.46;99444.28;2063512;28;19914;-60
2021/07/04 03:36:25;;;;;;;;;;;;;;;22.59;62.54;99441.53;2062092;28;19913;-60
2021/07/04 03:37:25;;;;;;;;;;;;;;;22.58;62.58;99441.72;2061295;28;19913;-60
2021/07/04 03:38:25;;;;;;;;;;;;;;;22.59;62.57;99447.03;2062426;28;19909;-60
2021/07/04 03:39:26;;;;;;;;;;;;;;;22.59;62.59;99440.69;2063489;28;19914;-60
2021/07/04 03:40:26;;;;;;;;;;;;;;;22.59;62.64;99438.78;2060789;28;19902;-60
2021/07/04 03:41:26;;;;;;;;;;;;;;;22.59;62.49;99437.94;2060903;28;19913;-60
2021/07/04 03:42:27;;;;;;;;;;;;;;;22.58;62.63;99437.06;2063104;28;19970;-60
2021/07/04 03:43:27;;;;;;;;;;;;;;;22.59;62.72;99448.94;2060754;28;19944;-60
2021/07/04 03:44:27;;;;;;;;;;;;;;;22.58;62.43;99453.56;2061899;28;20000;-60
2021/07/04 03:45:27;;;;;;;;;;;;;;;22.59;62.57;99460.78;2064459;28;19901;-60
2021/07/04 03:46:28;;;;;;;;;;;;;;;22.58;62.69;99461.78;2061042;28;19999;-60
2021/07/04 03:47:29;;;;;;;;;;;;;;;22.59;62.66;99465.41;2062091;28;19933;-60
2021/07/04 03:48:29;;;;;;;;;;;;;;;22.58;62.58;99463.69;2060906;28;19910;-60
2021/07/04 03:49:29;;;;;;;;;;;;;;;22.58;62.66;99469.19;2066445;28;20030;-60
2021/07/04 03:50:30;;;;;;;;;;;;;;;22.59;62.52;99463.50;2062454;28;20004;-60
2021/07/04 03:51:30;;;;;;;;;;;;;;;22.59;62.65;99459.91;2067357;28;19924;-60
2021/07/04 03:52:31;;;;;;;;;;;;;;;22.59;62.56;99465.41;2061331;28;19968;-60
2021/07/04 03:53:31;;;;;;;;;;;;;;;22.58;62.53;99459.03;2061006;28;19913;-60
2021/07/04 03:54:31;;;;;;;;;;;;;;;22.59;62.65;99454.44;2062558;28;20428;-61
2021/07/04 03:55:31;;;;;;;;;;;;;;;22.58;62.53;99453.56;2063772;28;19920;-60
2021/07/04 03:56:32;;;;;;;;;;;;;;;22.57;62.66;99449.13;2062753;28;19913;-60
2021/07/04 03:57:32;;;;;;;;;;;;;;;22.57;62.50;99440.88;2062948;28;20356;-61
2021/07/04 03:58:32;;;;;;;;;;;;;;;22.58;62.62;99425.25;2062985;28;19909;-60
2021/07/04 03:59:33;;;;;;;;;;;;;;;22.58;62.51;99415.09;2062863;28;19960;-60
2021/07/04 04:00:33;;;;;;;;;;;;;;;22.58;62.58;99404.09;2063144;28;20337;-60
2021/07/04 04:01:33;;;;;;;;;;;;;;;22.57;62.54;99396.94;2063336;28;20383;-61
2021/07/04 04:02:34;;;;;;;;;;;;;;;22.58;62.60;99398.63;2063627;28;19914;-60
2021/07/04 04:03:34;;;;;;;;;;;;;;;22.57;62.45;99402.41;2062900;28;19913;-60
2021/07/04 04:04:34;;;;;;;;;;;;;;;22.57;62.53;99407.91;2062050;28;20008;-60
2021/07/04 04:05:35;;;;;;;;;;;;;;;22.57;62.33;99402.41;2063034;28;19916;-60
2021/07/04 04:06:35;;;;;;;;;;;;;;;22.59;62.61;99405.00;2062985;28;19987;-60
2021/07/04 04:07:36;;;;;;;;;;;;;;;22.58;62.38;99406.84;2066437;28;20018;-60
2021/07/04 04:08:36;;;;;;;;;;;;;;;22.58;62.60;99406.84;2065419;28;19909;-61
2021/07/04 04:09:36;;;;;;;;;;;;;;;22.59;62.56;99410.47;2063139;28;19921;-60
2021/07/04 04:10:36;;;;;;;;;;;;;;;22.58;62.65;99409.59;2063404;28;19919;-60
2021/07/04 04:11:37;;;;;;;;;;;;;;;22.58;62.54;99409.59;2060601;28;19916;-61
2021/07/04 04:12:37;;;;;;;;;;;;;;;22.58;62.49;99409.59;2054319;28;20389;-60
2021/07/04 04:13:38;;;;;;;;;;;;;;;22.57;62.74;99407.91;2053957;28;19925;-60
2021/07/04 04:14:38;;;;;;;;;;;;;;;22.59;62.38;99400.34;2062417;28;19910;-60
2021/07/04 04:15:39;;;;;;;;;;;;;;;22.58;62.34;99381.28;2059440;28;20361;-60
2021/07/04 04:16:39;;;;;;;;;;;;;;;22.58;62.61;99387.63;2063064;28;19913;-60
2021/07/04 04:17:40;;;;;;;;;;;;;;;22.59;62.40;99385.75;2062306;28;19913;-60
2021/07/04 04:18:40;;;;;;;;;;;;;;;22.57;62.63;99385.94;2063352;28;19913;-60
2021/07/04 04:19:41;;;;;;;;;;;;;;;22.58;62.58;99393.13;2060975;28;19913;-60
2021/07/04 04:20:42;;;;;;;;;;;;;;;22.58;62.51;99403.25;2059783;28;19910;-60
2021/07/04 04:21:42;;;;;;;;;;;;;;;22.58;62.69;99415.09;2059975;28;19909;-60
2021/07/04 04:22:42;;;;;;;;;;;;;;;22.58;62.44;99412.34;2060107;28;19920;-60
2021/07/04 04:23:43;;;;;;;;;;;;;;;22.58;62.49;99412.34;2068075;28;19913;-60
2021/07/04 04:24:43;;;;;;;;;;;;;;;22.58;62.66;99415.09;2053369;28;19913;-60
2021/07/04 04:25:43;;;;;;;;;;;;;;;22.58;62.68;99409.59;2054626;28;19913;-60
2021/07/04 04:26:44;;;;;;;;;;;;;;;22.59;62.67;99408.59;2063213;28;20569;-60
2021/07/04 04:27:44;;;;;;;;;;;;;;;22.58;62.63;99406.00;2061128;28;20022;-61
2021/07/04 04:28:44;;;;;;;;;;;;;;;22.58;62.53;99398.63;2062860;28;20828;-60
2021/07/04 04:29:45;;;;;;;;;;;;;;;22.58;62.69;99406.84;2063250;28;20349;-61
2021/07/04 04:30:45;;;;;;;;;;;;;;;22.58;62.66;99398.63;2068061;28;20168;-60
2021/07/04 04:31:46;;;;;;;;;;;;;;;22.57;62.69;99396.94;2066571;28;20829;-61
2021/07/04 04:32:47;;;;;;;;;;;;;;;22.57;62.45;99388.69;2065658;28;20368;-60
2021/07/04 04:33:47;;;;;;;;;;;;;;;22.57;62.57;99391.44;2063610;28;20707;-60
2021/07/04 04:34:47;;;;;;;;;;;;;;;22.56;62.39;99389.72;2062958;28;20718;-60
2021/07/04 04:35:48;;;;;;;;;;;;;;;22.58;62.45;99386.78;2062984;28;20599;-60
2021/07/04 04:36:48;;;;;;;;;;;;;;;22.58;62.64;99404.09;2063026;28;19917;-60
2021/07/04 04:37:48;;;;;;;;;;;;;;;22.57;62.67;99402.41;2054281;28;19917;-60
2021/07/04 04:38:49;;;;;;;;;;;;;;;22.57;62.55;99391.44;2054973;28;19968;-60
2021/07/04 04:39:49;;;;;;;;;;;;;;;22.59;62.56;99388.50;2062866;28;19914;-61
2021/07/04 04:40:49;;;;;;;;;;;;;;;22.58;62.53;99387.63;2062070;28;19975;-61
2021/07/04 04:41:50;;;;;;;;;;;;;;;22.58;62.63;99390.38;2062817;28;19917;-60
2021/07/04 04:42:50;;;;;;;;;;;;;;;22.58;62.60;99384.88;2061819;28;19920;-61
2021/07/04 04:43:50;;;;;;;;;;;;;;;22.58;62.37;99393.13;2062531;28;20101;-60
2021/07/04 04:44:51;;;;;;;;;;;;;;;22.58;62.66;99387.63;2059209;28;19908;-61
2021/07/04 04:45:51;;;;;;;;;;;;;;;22.59;62.58;99383.00;2062800;28;19995;-61
2021/07/04 04:46:52;;;;;;;;;;;;;;;22.58;62.34;99382.13;2062671;28;19907;-60
2021/07/04 04:47:52;;;;;;;;;;;;;;;22.57;62.38;99380.44;2059931;28;19913;-60
2021/07/04 04:48:52;;;;;;;;;;;;;;;22.57;62.58;99385.94;2063681;28;19940;-61
2021/07/04 04:49:53;;;;;;;;;;;;;;;22.57;62.33;99388.69;2062063;28;19917;-60
2021/07/04 04:50:53;;;;;;;;;;;;;;;22.58;62.62;99389.53;2062036;28;20375;-60
2021/07/04 04:51:53;;;;;;;;;;;;;;;22.58;62.48;99395.88;2063331;28;19984;-60
2021/07/04 04:52:54;;;;;;;;;;;;;;;22.57;62.67;99383.19;2061293;28;19980;-60
2021/07/04 04:53:54;;;;;;;;;;;;;;;22.57;62.39;99385.94;2062036;28;19909;-60
2021/07/04 04:54:54;;;;;;;;;;;;;;;22.57;62.51;99396.94;2062903;28;19906;-60
2021/07/04 04:55:55;;;;;;;;;;;;;;;22.57;62.29;99394.19;2064075;28;19937;-60
2021/07/04 04:56:55;;;;;;;;;;;;;;;22.56;62.47;99389.72;2063729;28;19913;-60
2021/07/04 04:57:55;;;;;;;;;;;;;;;22.57;62.75;99391.44;2064061;28;20066;-61
2021/07/04 04:58:56;;;;;;;;;;;;;;;22.57;62.53;99390.59;2062751;28;20651;-60
2021/07/04 04:59:56;;;;;;;;;;;;;;;22.57;62.36;99383.19;2062387;28;19901;-60
2021/07/04 05:00:56;;;;;;;;;;;;;;;22.58;62.62;99381.28;2062334;28;20252;-60
2021/07/04 05:01:57;;;;;;;;;;;;;;;22.57;62.57;99380.44;2063666;28;20339;-60
2021/07/04 05:03:03;;;;;;;;;;;;;;;22.59;62.44;99383.00;2059321;28;19918;-60
2021/07/04 05:04:04;;;;;;;;;;;;;;;22.57;62.70;99380.44;2063357;28;20500;-60
2021/07/04 05:05:05;;;;;;;;;;;;;;;22.56;62.57;99378.72;2059824;28;19928;-60
2021/07/04 05:06:05;;;;;;;;;;;;;;;22.55;62.48;99382.53;2061569;28;19960;-60
2021/07/04 05:07:07;;;;;;;;;;;;;;;22.56;62.53;99389.72;2063524;28;19945;-60
2021/07/04 05:08:07;;;;;;;;;;;;;;;22.58;62.49;99398.63;2061612;28;20628;-61
2021/07/04 05:09:08;;;;;;;;;;;;;;;22.56;62.70;99399.84;2060176;28;19913;-60
2021/07/04 05:10:08;;;;;;;;;;;;;;;22.57;62.62;99407.91;2054466;28;19909;-60
2021/07/04 05:11:09;;;;;;;;;;;;;;;22.57;62.47;99407.91;2052006;28;19924;-60
2021/07/04 05:12:10;;;;;;;;;;;;;;;22.56;62.52;99411.69;2052200;28;19914;-60
2021/07/04 05:13:10;;;;;;;;;;;;;;;22.56;62.74;99417.19;2053442;28;19960;-60
2021/07/04 05:14:11;;;;;;;;;;;;;;;22.55;62.53;99418.22;2055783;28;19913;-60
2021/07/04 05:15:12;;;;;;;;;;;;;;;22.56;62.75;99428.16;2049453;28;19917;-60
2021/07/04 05:16:12;;;;;;;;;;;;;;;22.56;62.55;99419.91;2059851;28;20008;-60